sensor_id;sensor_type;location;lat;lon;timestamp;P1;durP1;ratioP1;P2;durP2;ratioP2
14139;SDS011;7150;53.514;9.988;2023-07-28T00:00:09;5.20;;;4.50;;
14139;SDS011;7150;53.514;9.988;2023-07-28T00:02:35;8.00;;;5.63;;
14139;SDS011;7150;53.514;9.988;2023-07-28T00:05:01;6.03;;;4.97;;
14139;SDS011;7150;53.514;9.988;2023-07-28T00:07:26;6.97;;;5.00;;
14139;SDS011;7150;53.514;9.988;2023-07-28T00:09:52;5.97;;;5.17;;
14139;SDS011;7150;53.514;9.988;2023-07-28T00:12:17;6.53;;;5.10;;
14139;SDS011;7150;53.514;9.988;2023-07-28T00:14:43;6.53;;;4.73;;
14139;SDS011;7150;53.514;9.988;2023-07-28T00:17:08;7.97;;;5.43;;
14139;SDS011;7150;53.514;9.988;2023-07-28T00:19:34;7.63;;;5.33;;
14139;SDS011;7150;53.514;9.988;2023-07-28T00:21:59;6.57;;;5.33;;
14139;SDS011;7150;53.514;9.988;2023-07-28T00:24:24;5.83;;;5.00;;
14139;SDS011;7150;53.514;9.988;2023-07-28T00:26:50;6.07;;;5.17;;
14139;SDS011;7150;53.514;9.988;2023-07-28T00:29:15;6.13;;;5.03;;
14139;SDS011;7150;53.514;9.988;2023-07-28T00:31:41;7.43;;;5.30;;
14139;SDS011;7150;53.514;9.988;2023-07-28T00:34:06;6.10;;;5.07;;
14139;SDS011;7150;53.514;9.988;2023-07-28T00:36:32;6.27;;;4.60;;
14139;SDS011;7150;53.514;9.988;2023-07-28T00:38:58;6.93;;;5.00;;
14139;SDS011;7150;53.514;9.988;2023-07-28T00:41:23;4.87;;;4.27;;
14139;SDS011;7150;53.514;9.988;2023-07-28T00:43:49;5.53;;;4.67;;
14139;SDS011;7150;53.514;9.988;2023-07-28T00:46:15;5.40;;;4.50;;
14139;SDS011;7150;53.514;9.988;2023-07-28T00:48:40;6.43;;;5.03;;
14139;SDS011;7150;53.514;9.988;2023-07-28T00:51:09;5.70;;;4.87;;
14139;SDS011;7150;53.514;9.988;2023-07-28T00:53:36;6.23;;;5.30;;
14139;SDS011;7150;53.514;9.988;2023-07-28T00:56:02;7.77;;;5.90;;
14139;SDS011;7150;53.514;9.988;2023-07-28T00:58:29;6.20;;;5.50;;
14139;SDS011;7150;53.514;9.988;2023-07-28T01:00:55;6.87;;;5.20;;
14139;SDS011;7150;53.514;9.988;2023-07-28T01:03:20;6.20;;;5.10;;
14139;SDS011;7150;53.514;9.988;2023-07-28T01:08:34;6.00;;;4.93;;
14139;SDS011;7150;53.514;9.988;2023-07-28T01:11:11;5.43;;;4.40;;
14139;SDS011;7150;53.514;9.988;2023-07-28T01:13:36;4.10;;;3.70;;
14139;SDS011;7150;53.514;9.988;2023-07-28T01:16:02;5.70;;;4.10;;
14139;SDS011;7150;53.514;9.988;2023-07-28T01:18:27;4.77;;;4.00;;
14139;SDS011;7150;53.514;9.988;2023-07-28T01:20:54;5.10;;;4.43;;
14139;SDS011;7150;53.514;9.988;2023-07-28T01:23:31;5.07;;;4.23;;
14139;SDS011;7150;53.514;9.988;2023-07-28T01:26:09;4.93;;;4.10;;
14139;SDS011;7150;53.514;9.988;2023-07-28T01:28:36;5.57;;;4.30;;
14139;SDS011;7150;53.514;9.988;2023-07-28T01:31:04;6.80;;;5.07;;
14139;SDS011;7150;53.514;9.988;2023-07-28T01:33:30;5.80;;;4.77;;
14139;SDS011;7150;53.514;9.988;2023-07-28T01:35:56;5.17;;;4.67;;
14139;SDS011;7150;53.514;9.988;2023-07-28T01:38:23;6.57;;;5.10;;
14139;SDS011;7150;53.514;9.988;2023-07-28T01:40:49;5.37;;;4.77;;
14139;SDS011;7150;53.514;9.988;2023-07-28T01:43:14;6.50;;;5.20;;
14139;SDS011;7150;53.514;9.988;2023-07-28T01:45:40;7.17;;;5.40;;
14139;SDS011;7150;53.514;9.988;2023-07-28T01:48:05;6.70;;;5.13;;
14139;SDS011;7150;53.514;9.988;2023-07-28T01:50:31;6.67;;;5.53;;
14139;SDS011;7150;53.514;9.988;2023-07-28T01:52:56;6.43;;;5.30;;
14139;SDS011;7150;53.514;9.988;2023-07-28T01:55:22;5.87;;;4.77;;
14139;SDS011;7150;53.514;9.988;2023-07-28T01:57:57;5.77;;;4.60;;
14139;SDS011;7150;53.514;9.988;2023-07-28T02:00:24;5.20;;;4.23;;
14139;SDS011;7150;53.514;9.988;2023-07-28T02:02:50;6.33;;;3.73;;
14139;SDS011;7150;53.514;9.988;2023-07-28T02:05:17;9.33;;;3.83;;
14139;SDS011;7150;53.514;9.988;2023-07-28T02:07:42;5.83;;;3.80;;
14139;SDS011;7150;53.514;9.988;2023-07-28T02:10:08;7.03;;;4.90;;
14139;SDS011;7150;53.514;9.988;2023-07-28T02:12:35;4.53;;;4.10;;
14139;SDS011;7150;53.514;9.988;2023-07-28T02:15:01;8.57;;;4.60;;
14139;SDS011;7150;53.514;9.988;2023-07-28T02:17:26;5.00;;;4.10;;
14139;SDS011;7150;53.514;9.988;2023-07-28T02:19:51;6.00;;;5.10;;
14139;SDS011;7150;53.514;9.988;2023-07-28T02:22:17;6.47;;;4.97;;
14139;SDS011;7150;53.514;9.988;2023-07-28T02:24:42;6.27;;;5.27;;
14139;SDS011;7150;53.514;9.988;2023-07-28T02:27:08;8.70;;;4.80;;
14139;SDS011;7150;53.514;9.988;2023-07-28T02:29:33;5.30;;;4.80;;
14139;SDS011;7150;53.514;9.988;2023-07-28T02:31:59;6.20;;;5.50;;
14139;SDS011;7150;53.514;9.988;2023-07-28T02:34:24;5.43;;;4.63;;
14139;SDS011;7150;53.514;9.988;2023-07-28T02:36:50;6.73;;;5.50;;
14139;SDS011;7150;53.514;9.988;2023-07-28T02:39:15;8.03;;;5.50;;
14139;SDS011;7150;53.514;9.988;2023-07-28T02:41:41;5.67;;;5.10;;
14139;SDS011;7150;53.514;9.988;2023-07-28T02:44:07;7.37;;;5.80;;
14139;SDS011;7150;53.514;9.988;2023-07-28T02:46:32;6.60;;;5.80;;
14139;SDS011;7150;53.514;9.988;2023-07-28T02:48:58;7.80;;;6.40;;
14139;SDS011;7150;53.514;9.988;2023-07-28T02:51:23;7.20;;;6.03;;
14139;SDS011;7150;53.514;9.988;2023-07-28T02:53:49;8.43;;;5.87;;
14139;SDS011;7150;53.514;9.988;2023-07-28T02:56:14;7.37;;;5.87;;
14139;SDS011;7150;53.514;9.988;2023-07-28T02:58:40;9.13;;;5.83;;
14139;SDS011;7150;53.514;9.988;2023-07-28T03:01:05;7.60;;;5.37;;
14139;SDS011;7150;53.514;9.988;2023-07-28T03:03:31;10.57;;;6.07;;
14139;SDS011;7150;53.514;9.988;2023-07-28T03:05:56;7.60;;;5.40;;
14139;SDS011;7150;53.514;9.988;2023-07-28T03:08:21;7.10;;;4.33;;
14139;SDS011;7150;53.514;9.988;2023-07-28T03:10:47;5.47;;;3.93;;
14139;SDS011;7150;53.514;9.988;2023-07-28T03:13:13;3.30;;;2.87;;
14139;SDS011;7150;53.514;9.988;2023-07-28T03:15:38;3.13;;;2.83;;
14139;SDS011;7150;53.514;9.988;2023-07-28T03:18:04;2.70;;;2.50;;
14139;SDS011;7150;53.514;9.988;2023-07-28T03:20:29;3.93;;;2.40;;
14139;SDS011;7150;53.514;9.988;2023-07-28T03:22:55;5.63;;;2.50;;
14139;SDS011;7150;53.514;9.988;2023-07-28T03:25:21;3.43;;;2.40;;
14139;SDS011;7150;53.514;9.988;2023-07-28T03:27:46;3.00;;;2.40;;
14139;SDS011;7150;53.514;9.988;2023-07-28T03:30:12;3.43;;;2.27;;
14139;SDS011;7150;53.514;9.988;2023-07-28T03:32:37;2.57;;;2.23;;
14139;SDS011;7150;53.514;9.988;2023-07-28T03:35:03;2.67;;;2.37;;
14139;SDS011;7150;53.514;9.988;2023-07-28T03:37:30;2.63;;;2.43;;
14139;SDS011;7150;53.514;9.988;2023-07-28T03:39:56;3.43;;;2.60;;
14139;SDS011;7150;53.514;9.988;2023-07-28T03:42:22;3.80;;;2.77;;
14139;SDS011;7150;53.514;9.988;2023-07-28T03:44:47;3.30;;;2.60;;
14139;SDS011;7150;53.514;9.988;2023-07-28T03:47:13;4.93;;;2.70;;
14139;SDS011;7150;53.514;9.988;2023-07-28T03:49:38;3.20;;;2.83;;
14139;SDS011;7150;53.514;9.988;2023-07-28T03:52:04;3.30;;;2.77;;
14139;SDS011;7150;53.514;9.988;2023-07-28T03:54:30;3.00;;;2.57;;
14139;SDS011;7150;53.514;9.988;2023-07-28T03:56:55;2.97;;;2.67;;
14139;SDS011;7150;53.514;9.988;2023-07-28T03:59:21;4.63;;;2.70;;
14139;SDS011;7150;53.514;9.988;2023-07-28T04:01:46;4.70;;;2.60;;
14139;SDS011;7150;53.514;9.988;2023-07-28T04:04:12;2.93;;;2.70;;
14139;SDS011;7150;53.514;9.988;2023-07-28T04:06:45;3.10;;;2.83;;
14139;SDS011;7150;53.514;9.988;2023-07-28T04:09:13;2.80;;;2.60;;
14139;SDS011;7150;53.514;9.988;2023-07-28T04:11:40;3.70;;;2.50;;
14139;SDS011;7150;53.514;9.988;2023-07-28T04:14:06;5.57;;;2.80;;
14139;SDS011;7150;53.514;9.988;2023-07-28T04:16:32;2.50;;;2.30;;
14139;SDS011;7150;53.514;9.988;2023-07-28T04:18:57;3.77;;;2.87;;
14139;SDS011;7150;53.514;9.988;2023-07-28T04:21:23;3.13;;;2.80;;
14139;SDS011;7150;53.514;9.988;2023-07-28T04:23:49;3.30;;;2.73;;
14139;SDS011;7150;53.514;9.988;2023-07-28T04:26:15;3.33;;;2.60;;
14139;SDS011;7150;53.514;9.988;2023-07-28T04:28:41;3.67;;;3.30;;
14139;SDS011;7150;53.514;9.988;2023-07-28T04:31:07;3.03;;;2.77;;
14139;SDS011;7150;53.514;9.988;2023-07-28T04:33:32;4.73;;;2.60;;
14139;SDS011;7150;53.514;9.988;2023-07-28T04:35:57;2.90;;;2.60;;
14139;SDS011;7150;53.514;9.988;2023-07-28T04:38:23;3.17;;;2.87;;
14139;SDS011;7150;53.514;9.988;2023-07-28T04:40:49;5.27;;;3.43;;
14139;SDS011;7150;53.514;9.988;2023-07-28T04:43:14;3.70;;;2.30;;
14139;SDS011;7150;53.514;9.988;2023-07-28T04:45:40;4.67;;;2.40;;
14139;SDS011;7150;53.514;9.988;2023-07-28T04:48:05;3.60;;;2.27;;
14139;SDS011;7150;53.514;9.988;2023-07-28T04:50:31;2.83;;;2.57;;
14139;SDS011;7150;53.514;9.988;2023-07-28T04:52:58;3.93;;;2.87;;
14139;SDS011;7150;53.514;9.988;2023-07-28T04:55:24;5.50;;;2.50;;
14139;SDS011;7150;53.514;9.988;2023-07-28T04:57:51;3.23;;;2.93;;
14139;SDS011;7150;53.514;9.988;2023-07-28T05:00:17;2.97;;;2.67;;
14139;SDS011;7150;53.514;9.988;2023-07-28T05:02:43;3.03;;;2.77;;
14139;SDS011;7150;53.514;9.988;2023-07-28T05:05:08;3.70;;;3.00;;
14139;SDS011;7150;53.514;9.988;2023-07-28T05:07:34;5.27;;;2.90;;
14139;SDS011;7150;53.514;9.988;2023-07-28T05:09:59;4.67;;;2.90;;
14139;SDS011;7150;53.514;9.988;2023-07-28T05:12:25;3.70;;;3.07;;
14139;SDS011;7150;53.514;9.988;2023-07-28T05:14:50;3.73;;;3.27;;
14139;SDS011;7150;53.514;9.988;2023-07-28T05:17:16;4.93;;;3.27;;
14139;SDS011;7150;53.514;9.988;2023-07-28T05:19:41;4.10;;;3.30;;
14139;SDS011;7150;53.514;9.988;2023-07-28T05:22:07;4.83;;;3.40;;
14139;SDS011;7150;53.514;9.988;2023-07-28T05:24:33;4.33;;;3.77;;
14139;SDS011;7150;53.514;9.988;2023-07-28T05:26:59;5.63;;;4.00;;
14139;SDS011;7150;53.514;9.988;2023-07-28T05:29:24;6.00;;;4.20;;
14139;SDS011;7150;53.514;9.988;2023-07-28T05:31:50;5.50;;;3.70;;
14139;SDS011;7150;53.514;9.988;2023-07-28T05:34:15;3.77;;;3.47;;
14139;SDS011;7150;53.514;9.988;2023-07-28T05:36:41;4.20;;;3.57;;
14139;SDS011;7150;53.514;9.988;2023-07-28T05:39:07;5.33;;;3.80;;
14139;SDS011;7150;53.514;9.988;2023-07-28T05:41:33;6.50;;;4.17;;
14139;SDS011;7150;53.514;9.988;2023-07-28T05:43:59;5.23;;;4.30;;
14139;SDS011;7150;53.514;9.988;2023-07-28T05:46:24;4.63;;;4.13;;
14139;SDS011;7150;53.514;9.988;2023-07-28T05:48:50;8.33;;;4.50;;
14139;SDS011;7150;53.514;9.988;2023-07-28T05:51:15;5.53;;;4.80;;
14139;SDS011;7150;53.514;9.988;2023-07-28T05:53:41;4.60;;;4.07;;
14139;SDS011;7150;53.514;9.988;2023-07-28T05:56:06;7.70;;;5.00;;
14139;SDS011;7150;53.514;9.988;2023-07-28T05:58:32;6.67;;;5.33;;
14139;SDS011;7150;53.514;9.988;2023-07-28T06:00:58;6.03;;;5.40;;
14139;SDS011;7150;53.514;9.988;2023-07-28T06:03:23;7.97;;;5.27;;
14139;SDS011;7150;53.514;9.988;2023-07-28T06:05:49;6.03;;;5.43;;
14139;SDS011;7150;53.514;9.988;2023-07-28T06:08:15;5.97;;;5.37;;
14139;SDS011;7150;53.514;9.988;2023-07-28T06:10:41;6.33;;;5.73;;
14139;SDS011;7150;53.514;9.988;2023-07-28T06:13:06;6.47;;;5.77;;
14139;SDS011;7150;53.514;9.988;2023-07-28T06:15:32;6.70;;;6.00;;
14139;SDS011;7150;53.514;9.988;2023-07-28T06:17:59;7.63;;;6.43;;
14139;SDS011;7150;53.514;9.988;2023-07-28T06:20:25;5.83;;;5.23;;
14139;SDS011;7150;53.514;9.988;2023-07-28T06:22:51;7.53;;;5.40;;
14139;SDS011;7150;53.514;9.988;2023-07-28T06:25:16;13.67;;;6.37;;
14139;SDS011;7150;53.514;9.988;2023-07-28T06:27:42;6.90;;;6.17;;
14139;SDS011;7150;53.514;9.988;2023-07-28T06:30:08;6.60;;;5.37;;
14139;SDS011;7150;53.514;9.988;2023-07-28T06:32:33;6.47;;;5.77;;
14139;SDS011;7150;53.514;9.988;2023-07-28T06:34:59;6.50;;;5.83;;
14139;SDS011;7150;53.514;9.988;2023-07-28T06:37:24;7.23;;;6.43;;
14139;SDS011;7150;53.514;9.988;2023-07-28T06:39:50;7.07;;;5.77;;
14139;SDS011;7150;53.514;9.988;2023-07-28T06:42:16;7.10;;;5.93;;
14139;SDS011;7150;53.514;9.988;2023-07-28T06:44:45;7.30;;;6.30;;
14139;SDS011;7150;53.514;9.988;2023-07-28T06:47:11;9.13;;;6.10;;
14139;SDS011;7150;53.514;9.988;2023-07-28T06:49:36;8.33;;;6.70;;
14139;SDS011;7150;53.514;9.988;2023-07-28T06:52:02;7.53;;;5.70;;
14139;SDS011;7150;53.514;9.988;2023-07-28T06:54:27;5.57;;;4.97;;
14139;SDS011;7150;53.514;9.988;2023-07-28T06:56:53;5.50;;;4.93;;
14139;SDS011;7150;53.514;9.988;2023-07-28T06:59:18;6.50;;;4.67;;
14139;SDS011;7150;53.514;9.988;2023-07-28T07:01:44;7.47;;;5.23;;
14139;SDS011;7150;53.514;9.988;2023-07-28T07:04:09;6.07;;;5.20;;
14139;SDS011;7150;53.514;9.988;2023-07-28T07:06:36;5.63;;;4.80;;
14139;SDS011;7150;53.514;9.988;2023-07-28T07:09:01;5.43;;;4.30;;
14139;SDS011;7150;53.514;9.988;2023-07-28T07:11:28;5.80;;;4.10;;
14139;SDS011;7150;53.514;9.988;2023-07-28T07:13:53;5.53;;;4.70;;
14139;SDS011;7150;53.514;9.988;2023-07-28T07:16:19;5.50;;;4.17;;
14139;SDS011;7150;53.514;9.988;2023-07-28T07:18:44;8.33;;;4.53;;
14139;SDS011;7150;53.514;9.988;2023-07-28T07:21:10;5.13;;;4.63;;
14139;SDS011;7150;53.514;9.988;2023-07-28T07:23:36;6.47;;;4.30;;
14139;SDS011;7150;53.514;9.988;2023-07-28T07:26:02;6.50;;;4.90;;
14139;SDS011;7150;53.514;9.988;2023-07-28T07:28:28;4.97;;;4.47;;
14139;SDS011;7150;53.514;9.988;2023-07-28T07:30:54;5.53;;;5.03;;
14139;SDS011;7150;53.514;9.988;2023-07-28T07:33:20;5.50;;;5.00;;
14139;SDS011;7150;53.514;9.988;2023-07-28T07:35:46;5.97;;;5.37;;
14139;SDS011;7150;53.514;9.988;2023-07-28T07:38:11;5.93;;;5.10;;
14139;SDS011;7150;53.514;9.988;2023-07-28T07:40:37;6.90;;;5.57;;
14139;SDS011;7150;53.514;9.988;2023-07-28T07:43:04;7.30;;;5.43;;
14139;SDS011;7150;53.514;9.988;2023-07-28T07:45:30;6.40;;;5.47;;
14139;SDS011;7150;53.514;9.988;2023-07-28T07:47:55;6.50;;;5.40;;
14139;SDS011;7150;53.514;9.988;2023-07-28T07:50:21;7.13;;;5.60;;
14139;SDS011;7150;53.514;9.988;2023-07-28T07:52:47;5.70;;;5.20;;
14139;SDS011;7150;53.514;9.988;2023-07-28T07:55:12;5.77;;;5.17;;
14139;SDS011;7150;53.514;9.988;2023-07-28T07:57:39;6.33;;;4.80;;
14139;SDS011;7150;53.514;9.988;2023-07-28T08:00:05;6.00;;;5.40;;
14139;SDS011;7150;53.514;9.988;2023-07-28T08:02:31;5.77;;;4.97;;
14139;SDS011;7150;53.514;9.988;2023-07-28T08:04:56;6.30;;;5.50;;
14139;SDS011;7150;53.514;9.988;2023-07-28T08:07:22;6.73;;;4.87;;
14139;SDS011;7150;53.514;9.988;2023-07-28T08:09:48;7.07;;;6.33;;
14139;SDS011;7150;53.514;9.988;2023-07-28T08:12:14;9.60;;;5.20;;
14139;SDS011;7150;53.514;9.988;2023-07-28T08:14:40;5.10;;;4.60;;
14139;SDS011;7150;53.514;9.988;2023-07-28T08:17:06;6.87;;;5.03;;
14139;SDS011;7150;53.514;9.988;2023-07-28T08:19:32;6.03;;;5.00;;
14139;SDS011;7150;53.514;9.988;2023-07-28T08:21:57;5.60;;;4.47;;
14139;SDS011;7150;53.514;9.988;2023-07-28T08:24:23;7.17;;;4.87;;
14139;SDS011;7150;53.514;9.988;2023-07-28T08:26:48;5.47;;;4.97;;
14139;SDS011;7150;53.514;9.988;2023-07-28T08:29:14;6.63;;;5.07;;
14139;SDS011;7150;53.514;9.988;2023-07-28T08:31:40;8.07;;;6.60;;
14139;SDS011;7150;53.514;9.988;2023-07-28T08:34:06;8.37;;;6.13;;
14139;SDS011;7150;53.514;9.988;2023-07-28T08:36:32;8.80;;;6.10;;
14139;SDS011;7150;53.514;9.988;2023-07-28T08:38:58;27.03;;;18.33;;
14139;SDS011;7150;53.514;9.988;2023-07-28T08:41:24;16.50;;;10.67;;
14139;SDS011;7150;53.514;9.988;2023-07-28T08:43:50;5.37;;;4.70;;
14139;SDS011;7150;53.514;9.988;2023-07-28T08:46:16;5.27;;;4.63;;
14139;SDS011;7150;53.514;9.988;2023-07-28T08:48:43;7.47;;;4.67;;
14139;SDS011;7150;53.514;9.988;2023-07-28T08:51:09;6.10;;;4.83;;
14139;SDS011;7150;53.514;9.988;2023-07-28T08:53:36;5.43;;;4.80;;
14139;SDS011;7150;53.514;9.988;2023-07-28T08:56:03;8.17;;;4.87;;
14139;SDS011;7150;53.514;9.988;2023-07-28T08:58:29;5.27;;;4.67;;
14139;SDS011;7150;53.514;9.988;2023-07-28T09:00:55;4.57;;;4.17;;
14139;SDS011;7150;53.514;9.988;2023-07-28T09:03:21;4.40;;;3.80;;
14139;SDS011;7150;53.514;9.988;2023-07-28T09:05:50;5.40;;;4.33;;
14139;SDS011;7150;53.514;9.988;2023-07-28T09:08:16;5.67;;;4.13;;
14139;SDS011;7150;53.514;9.988;2023-07-28T09:10:45;4.80;;;4.20;;
14139;SDS011;7150;53.514;9.988;2023-07-28T09:13:13;7.77;;;4.67;;
14139;SDS011;7150;53.514;9.988;2023-07-28T09:15:40;5.37;;;4.87;;
14139;SDS011;7150;53.514;9.988;2023-07-28T09:18:07;6.30;;;4.50;;
14139;SDS011;7150;53.514;9.988;2023-07-28T09:20:42;5.67;;;4.50;;
14139;SDS011;7150;53.514;9.988;2023-07-28T09:23:09;6.23;;;4.40;;
14139;SDS011;7150;53.514;9.988;2023-07-28T09:25:36;6.20;;;4.87;;
14139;SDS011;7150;53.514;9.988;2023-07-28T09:28:02;4.90;;;4.40;;
14139;SDS011;7150;53.514;9.988;2023-07-28T09:30:43;6.33;;;5.03;;
14139;SDS011;7150;53.514;9.988;2023-07-28T09:33:11;8.17;;;4.30;;
14139;SDS011;7150;53.514;9.988;2023-07-28T09:35:46;5.63;;;4.20;;
14139;SDS011;7150;53.514;9.988;2023-07-28T09:38:13;7.50;;;5.03;;
14139;SDS011;7150;53.514;9.988;2023-07-28T09:40:40;5.07;;;4.57;;
14139;SDS011;7150;53.514;9.988;2023-07-28T09:43:06;4.40;;;4.00;;
14139;SDS011;7150;53.514;9.988;2023-07-28T09:45:32;8.23;;;4.97;;
14139;SDS011;7150;53.514;9.988;2023-07-28T09:47:59;5.60;;;4.53;;
14139;SDS011;7150;53.514;9.988;2023-07-28T09:50:27;4.23;;;3.73;;
14139;SDS011;7150;53.514;9.988;2023-07-28T09:52:57;5.13;;;3.47;;
14139;SDS011;7150;53.514;9.988;2023-07-28T09:55:27;4.50;;;3.43;;
14139;SDS011;7150;53.514;9.988;2023-07-28T09:57:54;5.13;;;3.70;;
14139;SDS011;7150;53.514;9.988;2023-07-28T10:00:21;5.30;;;4.43;;
14139;SDS011;7150;53.514;9.988;2023-07-28T10:02:47;5.90;;;4.23;;
14139;SDS011;7150;53.514;9.988;2023-07-28T10:05:14;5.83;;;4.33;;
14139;SDS011;7150;53.514;9.988;2023-07-28T10:07:40;4.83;;;4.20;;
14139;SDS011;7150;53.514;9.988;2023-07-28T10:10:08;4.30;;;3.90;;
14139;SDS011;7150;53.514;9.988;2023-07-28T10:12:52;4.27;;;3.87;;
14139;SDS011;7150;53.514;9.988;2023-07-28T10:15:20;6.40;;;4.27;;
14139;SDS011;7150;53.514;9.988;2023-07-28T10:17:53;7.67;;;4.00;;
14139;SDS011;7150;53.514;9.988;2023-07-28T10:20:30;4.13;;;3.40;;
14139;SDS011;7150;53.514;9.988;2023-07-28T10:25:39;4.60;;;3.67;;
14139;SDS011;7150;53.514;9.988;2023-07-28T10:28:06;3.67;;;3.10;;
14139;SDS011;7150;53.514;9.988;2023-07-28T10:30:50;5.63;;;3.10;;
14139;SDS011;7150;53.514;9.988;2023-07-28T10:33:27;5.63;;;4.20;;
14139;SDS011;7150;53.514;9.988;2023-07-28T10:35:55;5.60;;;3.87;;
14139;SDS011;7150;53.514;9.988;2023-07-28T10:38:28;4.70;;;2.90;;
14139;SDS011;7150;53.514;9.988;2023-07-28T10:41:04;3.30;;;2.60;;
14139;SDS011;7150;53.514;9.988;2023-07-28T10:43:31;3.70;;;3.00;;
14139;SDS011;7150;53.514;9.988;2023-07-28T10:45:56;4.37;;;3.30;;
14139;SDS011;7150;53.514;9.988;2023-07-28T10:48:22;3.20;;;2.80;;
14139;SDS011;7150;53.514;9.988;2023-07-28T10:50:49;3.03;;;2.73;;
14139;SDS011;7150;53.514;9.988;2023-07-28T10:53:15;3.87;;;3.10;;
14139;SDS011;7150;53.514;9.988;2023-07-28T10:55:40;4.20;;;3.00;;
14139;SDS011;7150;53.514;9.988;2023-07-28T10:58:06;3.37;;;2.93;;
14139;SDS011;7150;53.514;9.988;2023-07-28T11:00:31;3.97;;;3.07;;
14139;SDS011;7150;53.514;9.988;2023-07-28T11:02:57;3.90;;;3.30;;
14139;SDS011;7150;53.514;9.988;2023-07-28T11:05:23;4.83;;;3.30;;
14139;SDS011;7150;53.514;9.988;2023-07-28T11:07:54;4.03;;;3.60;;
14139;SDS011;7150;53.514;9.988;2023-07-28T11:10:21;4.83;;;3.93;;
14139;SDS011;7150;53.514;9.988;2023-07-28T11:12:50;5.83;;;4.37;;
14139;SDS011;7150;53.514;9.988;2023-07-28T11:15:17;5.70;;;4.57;;
14139;SDS011;7150;53.514;9.988;2023-07-28T11:17:49;5.30;;;3.87;;
14139;SDS011;7150;53.514;9.988;2023-07-28T11:20:16;3.97;;;3.30;;
14139;SDS011;7150;53.514;9.988;2023-07-28T11:22:43;3.23;;;2.80;;
14139;SDS011;7150;53.514;9.988;2023-07-28T11:25:09;3.03;;;2.47;;
14139;SDS011;7150;53.514;9.988;2023-07-28T11:27:39;2.77;;;2.27;;
14139;SDS011;7150;53.514;9.988;2023-07-28T11:30:08;3.27;;;2.97;;
14139;SDS011;7150;53.514;9.988;2023-07-28T11:32:34;4.20;;;2.50;;
14139;SDS011;7150;53.514;9.988;2023-07-28T11:37:30;2.97;;;2.70;;
14139;SDS011;7150;53.514;9.988;2023-07-28T11:39:58;3.73;;;3.07;;
14139;SDS011;7150;53.514;9.988;2023-07-28T11:42:25;2.60;;;2.40;;
14139;SDS011;7150;53.514;9.988;2023-07-28T11:44:52;2.80;;;2.57;;
14139;SDS011;7150;53.514;9.988;2023-07-28T11:47:17;3.27;;;2.50;;
14139;SDS011;7150;53.514;9.988;2023-07-28T11:49:50;2.80;;;2.60;;
14139;SDS011;7150;53.514;9.988;2023-07-28T11:52:18;2.50;;;2.30;;
14139;SDS011;7150;53.514;9.988;2023-07-28T11:54:46;3.90;;;2.57;;
14139;SDS011;7150;53.514;9.988;2023-07-28T11:57:11;2.30;;;2.10;;
14139;SDS011;7150;53.514;9.988;2023-07-28T11:59:38;4.97;;;2.70;;
14139;SDS011;7150;53.514;9.988;2023-07-28T12:02:04;3.37;;;2.67;;
14139;SDS011;7150;53.514;9.988;2023-07-28T12:04:31;4.20;;;2.83;;
14139;SDS011;7150;53.514;9.988;2023-07-28T12:07:02;2.50;;;2.30;;
14139;SDS011;7150;53.514;9.988;2023-07-28T12:12:26;2.03;;;1.90;;
14139;SDS011;7150;53.514;9.988;2023-07-28T12:14:56;4.20;;;2.20;;
14139;SDS011;7150;53.514;9.988;2023-07-28T12:17:29;2.73;;;2.00;;
14139;SDS011;7150;53.514;9.988;2023-07-28T12:20:05;4.43;;;2.37;;
14139;SDS011;7150;53.514;9.988;2023-07-28T12:22:40;4.13;;;2.00;;
14139;SDS011;7150;53.514;9.988;2023-07-28T12:25:07;2.07;;;1.87;;
14139;SDS011;7150;53.514;9.988;2023-07-28T12:27:32;2.60;;;2.40;;
14139;SDS011;7150;53.514;9.988;2023-07-28T12:29:59;4.47;;;2.33;;
14139;SDS011;7150;53.514;9.988;2023-07-28T12:32:24;3.43;;;2.40;;
14139;SDS011;7150;53.514;9.988;2023-07-28T12:34:50;2.60;;;1.80;;
14139;SDS011;7150;53.514;9.988;2023-07-28T12:37:16;2.10;;;1.80;;
14139;SDS011;7150;53.514;9.988;2023-07-28T12:39:42;2.30;;;2.10;;
14139;SDS011;7150;53.514;9.988;2023-07-28T12:42:09;4.23;;;2.33;;
14139;SDS011;7150;53.514;9.988;2023-07-28T12:44:35;2.10;;;1.90;;
14139;SDS011;7150;53.514;9.988;2023-07-28T12:47:01;2.90;;;2.20;;
14139;SDS011;7150;53.514;9.988;2023-07-28T12:49:28;3.93;;;1.83;;
14139;SDS011;7150;53.514;9.988;2023-07-28T12:51:57;6.20;;;2.30;;
14139;SDS011;7150;53.514;9.988;2023-07-28T12:54:23;2.50;;;2.17;;
14139;SDS011;7150;53.514;9.988;2023-07-28T12:56:50;2.40;;;2.20;;
14139;SDS011;7150;53.514;9.988;2023-07-28T12:59:16;2.33;;;2.13;;
14139;SDS011;7150;53.514;9.988;2023-07-28T13:01:41;2.00;;;1.80;;
14139;SDS011;7150;53.514;9.988;2023-07-28T13:04:07;4.13;;;2.40;;
14139;SDS011;7150;53.514;9.988;2023-07-28T13:06:32;3.20;;;2.30;;
14139;SDS011;7150;53.514;9.988;2023-07-28T13:08:58;3.57;;;2.23;;
14139;SDS011;7150;53.514;9.988;2023-07-28T13:11:24;5.63;;;2.50;;
14139;SDS011;7150;53.514;9.988;2023-07-28T13:13:49;3.03;;;2.30;;
14139;SDS011;7150;53.514;9.988;2023-07-28T13:16:15;3.67;;;3.10;;
14139;SDS011;7150;53.514;9.988;2023-07-28T13:18:41;5.13;;;3.80;;
14139;SDS011;7150;53.514;9.988;2023-07-28T13:21:08;3.27;;;2.80;;
14139;SDS011;7150;53.514;9.988;2023-07-28T13:23:33;3.87;;;2.77;;
14139;SDS011;7150;53.514;9.988;2023-07-28T13:25:59;4.43;;;2.20;;
14139;SDS011;7150;53.514;9.988;2023-07-28T13:28:24;4.13;;;2.40;;
14139;SDS011;7150;53.514;9.988;2023-07-28T13:30:50;2.40;;;2.20;;
14139;SDS011;7150;53.514;9.988;2023-07-28T13:33:16;2.40;;;2.20;;
14139;SDS011;7150;53.514;9.988;2023-07-28T13:35:42;3.50;;;2.70;;
14139;SDS011;7150;53.514;9.988;2023-07-28T13:38:08;2.60;;;2.37;;
14139;SDS011;7150;53.514;9.988;2023-07-28T13:40:34;2.40;;;2.20;;
14139;SDS011;7150;53.514;9.988;2023-07-28T13:43:00;2.90;;;2.60;;
14139;SDS011;7150;53.514;9.988;2023-07-28T13:45:26;4.90;;;2.23;;
14139;SDS011;7150;53.514;9.988;2023-07-28T13:47:51;2.80;;;2.43;;
14139;SDS011;7150;53.514;9.988;2023-07-28T13:50:17;3.73;;;2.57;;
14139;SDS011;7150;53.514;9.988;2023-07-28T13:52:42;2.60;;;2.40;;
14139;SDS011;7150;53.514;9.988;2023-07-28T13:55:08;3.00;;;2.40;;
14139;SDS011;7150;53.514;9.988;2023-07-28T13:57:33;3.27;;;2.73;;
14139;SDS011;7150;53.514;9.988;2023-07-28T13:59:59;3.57;;;2.70;;
14139;SDS011;7150;53.514;9.988;2023-07-28T14:02:24;3.43;;;2.40;;
14139;SDS011;7150;53.514;9.988;2023-07-28T14:04:50;5.43;;;2.23;;
14139;SDS011;7150;53.514;9.988;2023-07-28T14:07:15;2.67;;;2.07;;
14139;SDS011;7150;53.514;9.988;2023-07-28T14:09:41;2.27;;;1.97;;
14139;SDS011;7150;53.514;9.988;2023-07-28T14:12:06;4.27;;;2.43;;
14139;SDS011;7150;53.514;9.988;2023-07-28T14:14:32;3.07;;;1.83;;
14139;SDS011;7150;53.514;9.988;2023-07-28T14:16:58;3.60;;;2.07;;
14139;SDS011;7150;53.514;9.988;2023-07-28T14:19:23;3.27;;;2.30;;
14139;SDS011;7150;53.514;9.988;2023-07-28T14:21:49;4.37;;;2.30;;
14139;SDS011;7150;53.514;9.988;2023-07-28T14:24:14;3.13;;;2.23;;
14139;SDS011;7150;53.514;9.988;2023-07-28T14:26:40;2.63;;;1.83;;
14139;SDS011;7150;53.514;9.988;2023-07-28T14:29:05;2.33;;;1.83;;
14139;SDS011;7150;53.514;9.988;2023-07-28T14:31:31;3.00;;;1.67;;
14139;SDS011;7150;53.514;9.988;2023-07-28T14:33:57;3.17;;;2.27;;
14139;SDS011;7150;53.514;9.988;2023-07-28T14:36:22;2.97;;;1.80;;
14139;SDS011;7150;53.514;9.988;2023-07-28T14:38:48;3.00;;;1.90;;
14139;SDS011;7150;53.514;9.988;2023-07-28T14:41:13;4.80;;;2.87;;
14139;SDS011;7150;53.514;9.988;2023-07-28T14:43:39;1.73;;;1.40;;
14139;SDS011;7150;53.514;9.988;2023-07-28T14:46:04;3.10;;;1.97;;
14139;SDS011;7150;53.514;9.988;2023-07-28T14:48:30;3.10;;;1.70;;
14139;SDS011;7150;53.514;9.988;2023-07-28T14:50:55;1.30;;;1.20;;
14139;SDS011;7150;53.514;9.988;2023-07-28T14:53:27;1.90;;;1.17;;
14139;SDS011;7150;53.514;9.988;2023-07-28T14:55:57;2.03;;;1.27;;
14139;SDS011;7150;53.514;9.988;2023-07-28T14:58:23;1.20;;;1.10;;
14139;SDS011;7150;53.514;9.988;2023-07-28T15:00:49;1.70;;;1.20;;
14139;SDS011;7150;53.514;9.988;2023-07-28T15:03:14;1.40;;;1.20;;
14139;SDS011;7150;53.514;9.988;2023-07-28T15:05:40;1.70;;;1.30;;